sensor_id;sensor_type;location;lat;lon;timestamp;temperature;humidity
56512;DHT22;42408;53.238;5.686;2023-04-30T00:00:51;9.20;99.90
56512;DHT22;42408;53.238;5.686;2023-04-30T00:03:17;9.20;99.90
56512;DHT22;42408;53.238;5.686;2023-04-30T00:05:43;9.20;99.90
56512;DHT22;42408;53.238;5.686;2023-04-30T00:08:08;9.10;99.90
56512;DHT22;42408;53.238;5.686;2023-04-30T00:10:34;9.10;99.90
56512;DHT22;42408;53.238;5.686;2023-04-30T00:12:59;9.00;99.90
56512;DHT22;42408;53.238;5.686;2023-04-30T00:15:25;9.00;99.90
56512;DHT22;42408;53.238;5.686;2023-04-30T00:17:51;8.90;99.90
56512;DHT22;42408;53.238;5.686;2023-04-30T00:20:17;8.90;99.90
56512;DHT22;42408;53.238;5.686;2023-04-30T00:22:43;8.90;99.90
56512;DHT22;42408;53.238;5.686;2023-04-30T00:25:09;8.80;99.90
56512;DHT22;42408;53.238;5.686;2023-04-30T00:27:34;8.80;99.90
56512;DHT22;42408;53.238;5.686;2023-04-30T00:30:00;8.80;99.90
56512;DHT22;42408;53.238;5.686;2023-04-30T00:32:25;8.80;99.90
56512;DHT22;42408;53.238;5.686;2023-04-30T00:34:51;8.80;99.90
56512;DHT22;42408;53.238;5.686;2023-04-30T00:37:17;8.80;99.90
56512;DHT22;42408;53.238;5.686;2023-04-30T00:39:42;8.70;99.90
56512;DHT22;42408;53.238;5.686;2023-04-30T00:42:08;8.80;99.90
56512;DHT22;42408;53.238;5.686;2023-04-30T00:44:33;8.70;99.90
56512;DHT22;42408;53.238;5.686;2023-04-30T00:46:59;8.70;99.90
56512;DHT22;42408;53.238;5.686;2023-04-30T00:49:25;8.70;99.90
56512;DHT22;42408;53.238;5.686;2023-04-30T00:51:51;8.70;99.90
56512;DHT22;42408;53.238;5.686;2023-04-30T00:54:19;8.70;99.90
56512;DHT22;42408;53.238;5.686;2023-04-30T00:56:45;8.80;99.90
56512;DHT22;42408;53.238;5.686;2023-04-30T00:59:12;8.70;99.90
56512;DHT22;42408;53.238;5.686;2023-04-30T01:01:38;8.70;99.90
56512;DHT22;42408;53.238;5.686;2023-04-30T01:04:04;8.70;99.90
56512;DHT22;42408;53.238;5.686;2023-04-30T01:06:30;8.70;99.90
56512;DHT22;42408;53.238;5.686;2023-04-30T01:08:57;8.70;99.90
56512;DHT22;42408;53.238;5.686;2023-04-30T01:17:24;8.70;99.90
56512;DHT22;42408;53.238;5.686;2023-04-30T01:19:53;8.80;99.90
56512;DHT22;42408;53.238;5.686;2023-04-30T01:25:58;8.90;99.90
56512;DHT22;42408;53.238;5.686;2023-04-30T01:28:27;9.00;99.90
56512;DHT22;42408;53.238;5.686;2023-04-30T01:30:53;9.00;99.90
56512;DHT22;42408;53.238;5.686;2023-04-30T01:33:18;9.00;99.90
56512;DHT22;42408;53.238;5.686;2023-04-30T01:38:31;9.00;99.90
56512;DHT22;42408;53.238;5.686;2023-04-30T01:44:16;9.00;99.90
56512;DHT22;42408;53.238;5.686;2023-04-30T01:46:55;9.00;99.90
56512;DHT22;42408;53.238;5.686;2023-04-30T01:49:36;9.00;99.90
56512;DHT22;42408;53.238;5.686;2023-04-30T01:52:11;9.00;99.90
56512;DHT22;42408;53.238;5.686;2023-04-30T01:55:04;9.10;99.90
56512;DHT22;42408;53.238;5.686;2023-04-30T01:57:37;9.10;99.90
56512;DHT22;42408;53.238;5.686;2023-04-30T02:00:05;9.10;99.90
56512;DHT22;42408;53.238;5.686;2023-04-30T02:02:33;9.10;99.90
56512;DHT22;42408;53.238;5.686;2023-04-30T02:04:58;9.00;99.90
56512;DHT22;42408;53.238;5.686;2023-04-30T02:10:03;9.10;99.90
56512;DHT22;42408;53.238;5.686;2023-04-30T02:12:28;9.10;99.90
56512;DHT22;42408;53.238;5.686;2023-04-30T02:14:54;9.10;99.90
56512;DHT22;42408;53.238;5.686;2023-04-30T02:17:20;9.10;99.90
56512;DHT22;42408;53.238;5.686;2023-04-30T02:19:45;9.10;99.90
56512;DHT22;42408;53.238;5.686;2023-04-30T02:22:11;9.10;99.90
56512;DHT22;42408;53.238;5.686;2023-04-30T02:24:37;9.10;99.90
56512;DHT22;42408;53.238;5.686;2023-04-30T02:27:03;9.00;99.90
56512;DHT22;42408;53.238;5.686;2023-04-30T02:29:28;9.10;99.90
56512;DHT22;42408;53.238;5.686;2023-04-30T02:31:57;9.10;99.90
56512;DHT22;42408;53.238;5.686;2023-04-30T02:34:23;9.10;99.90
56512;DHT22;42408;53.238;5.686;2023-04-30T02:36:49;9.10;99.90
56512;DHT22;42408;53.238;5.686;2023-04-30T02:39:14;9.20;99.90
56512;DHT22;42408;53.238;5.686;2023-04-30T02:41:40;9.20;99.90
56512;DHT22;42408;53.238;5.686;2023-04-30T02:44:06;9.20;99.90
56512;DHT22;42408;53.238;5.686;2023-04-30T02:46:31;9.20;99.90
56512;DHT22;42408;53.238;5.686;2023-04-30T02:48:57;9.20;99.90
56512;DHT22;42408;53.238;5.686;2023-04-30T02:51:22;9.20;99.90
56512;DHT22;42408;53.238;5.686;2023-04-30T02:53:48;9.10;99.90
56512;DHT22;42408;53.238;5.686;2023-04-30T02:56:14;9.10;99.90
56512;DHT22;42408;53.238;5.686;2023-04-30T02:58:40;9.10;99.90
56512;DHT22;42408;53.238;5.686;2023-04-30T03:01:05;9.10;99.90
56512;DHT22;42408;53.238;5.686;2023-04-30T03:03:31;9.10;99.90
56512;DHT22;42408;53.238;5.686;2023-04-30T03:05:58;9.00;99.90
56512;DHT22;42408;53.238;5.686;2023-04-30T03:08:26;8.90;99.90
56512;DHT22;42408;53.238;5.686;2023-04-30T03:10:52;8.90;99.90
56512;DHT22;42408;53.238;5.686;2023-04-30T03:13:18;8.90;99.90
56512;DHT22;42408;53.238;5.686;2023-04-30T03:15:43;8.80;99.90
56512;DHT22;42408;53.238;5.686;2023-04-30T03:18:10;8.80;99.90
56512;DHT22;42408;53.238;5.686;2023-04-30T03:20:35;8.70;99.90
56512;DHT22;42408;53.238;5.686;2023-04-30T03:23:01;8.60;99.90
56512;DHT22;42408;53.238;5.686;2023-04-30T03:25:27;8.60;99.90
56512;DHT22;42408;53.238;5.686;2023-04-30T03:27:52;8.60;99.90
56512;DHT22;42408;53.238;5.686;2023-04-30T03:30:18;8.50;99.90
56512;DHT22;42408;53.238;5.686;2023-04-30T03:32:44;8.50;99.90
56512;DHT22;42408;53.238;5.686;2023-04-30T03:35:10;8.40;99.90
56512;DHT22;42408;53.238;5.686;2023-04-30T03:37:35;8.40;99.90
56512;DHT22;42408;53.238;5.686;2023-04-30T03:40:01;8.40;99.90
56512;DHT22;42408;53.238;5.686;2023-04-30T03:42:27;8.30;99.90
56512;DHT22;42408;53.238;5.686;2023-04-30T03:44:53;8.30;99.90
56512;DHT22;42408;53.238;5.686;2023-04-30T03:47:18;8.30;99.90
56512;DHT22;42408;53.238;5.686;2023-04-30T03:49:44;8.20;99.90
56512;DHT22;42408;53.238;5.686;2023-04-30T03:52:10;8.20;99.90
56512;DHT22;42408;53.238;5.686;2023-04-30T03:54:35;8.20;99.90
56512;DHT22;42408;53.238;5.686;2023-04-30T03:57:01;8.10;99.90
56512;DHT22;42408;53.238;5.686;2023-04-30T03:59:30;8.10;99.90
56512;DHT22;42408;53.238;5.686;2023-04-30T04:01:56;8.00;99.90
56512;DHT22;42408;53.238;5.686;2023-04-30T04:04:21;8.00;99.90
56512;DHT22;42408;53.238;5.686;2023-04-30T04:06:47;8.00;99.90
56512;DHT22;42408;53.238;5.686;2023-04-30T04:09:13;8.00;99.90
56512;DHT22;42408;53.238;5.686;2023-04-30T04:11:38;7.90;99.90
56512;DHT22;42408;53.238;5.686;2023-04-30T04:14:04;8.00;99.90
56512;DHT22;42408;53.238;5.686;2023-04-30T04:16:30;7.90;99.90
56512;DHT22;42408;53.238;5.686;2023-04-30T04:18:55;7.90;99.90
56512;DHT22;42408;53.238;5.686;2023-04-30T04:21:21;7.90;99.90
56512;DHT22;42408;53.238;5.686;2023-04-30T04:23:47;7.80;99.90
56512;DHT22;42408;53.238;5.686;2023-04-30T04:26:12;7.80;99.90
56512;DHT22;42408;53.238;5.686;2023-04-30T04:28:39;7.80;99.90
56512;DHT22;42408;53.238;5.686;2023-04-30T04:31:05;7.80;99.90
56512;DHT22;42408;53.238;5.686;2023-04-30T04:33:32;7.80;99.90
56512;DHT22;42408;53.238;5.686;2023-04-30T04:35:57;7.80;99.90
56512;DHT22;42408;53.238;5.686;2023-04-30T04:38:24;7.80;99.90
56512;DHT22;42408;53.238;5.686;2023-04-30T04:40:54;7.80;99.90
56512;DHT22;42408;53.238;5.686;2023-04-30T04:43:20;7.80;99.90
56512;DHT22;42408;53.238;5.686;2023-04-30T04:45:46;7.80;99.90
56512;DHT22;42408;53.238;5.686;2023-04-30T04:48:14;7.90;99.90
56512;DHT22;42408;53.238;5.686;2023-04-30T04:50:40;7.90;99.90
56512;DHT22;42408;53.238;5.686;2023-04-30T04:53:06;7.90;99.90
56512;DHT22;42408;53.238;5.686;2023-04-30T04:55:31;8.00;99.90
56512;DHT22;42408;53.238;5.686;2023-04-30T04:57:57;8.00;99.90
56512;DHT22;42408;53.238;5.686;2023-04-30T05:00:23;8.10;99.90
56512;DHT22;42408;53.238;5.686;2023-04-30T05:02:50;8.10;99.90
56512;DHT22;42408;53.238;5.686;2023-04-30T05:05:16;8.10;99.90
56512;DHT22;42408;53.238;5.686;2023-04-30T05:07:41;8.20;99.90
56512;DHT22;42408;53.238;5.686;2023-04-30T05:10:07;8.20;99.90
56512;DHT22;42408;53.238;5.686;2023-04-30T05:12:33;8.30;99.90
56512;DHT22;42408;53.238;5.686;2023-04-30T05:14:59;8.30;99.90
56512;DHT22;42408;53.238;5.686;2023-04-30T05:17:24;8.30;99.90
56512;DHT22;42408;53.238;5.686;2023-04-30T05:19:51;8.40;99.90
56512;DHT22;42408;53.238;5.686;2023-04-30T05:22:17;8.40;99.90
56512;DHT22;42408;53.238;5.686;2023-04-30T05:24:42;8.50;99.90
56512;DHT22;42408;53.238;5.686;2023-04-30T05:27:08;8.50;99.90
56512;DHT22;42408;53.238;5.686;2023-04-30T05:29:34;8.50;99.90
56512;DHT22;42408;53.238;5.686;2023-04-30T05:32:00;8.60;99.90
56512;DHT22;42408;53.238;5.686;2023-04-30T05:34:26;8.60;99.90
56512;DHT22;42408;53.238;5.686;2023-04-30T05:36:52;8.70;99.90
56512;DHT22;42408;53.238;5.686;2023-04-30T05:39:17;8.70;99.90
56512;DHT22;42408;53.238;5.686;2023-04-30T05:41:43;8.80;99.90
56512;DHT22;42408;53.238;5.686;2023-04-30T05:44:08;8.80;99.90
56512;DHT22;42408;53.238;5.686;2023-04-30T05:46:34;8.90;99.90
56512;DHT22;42408;53.238;5.686;2023-04-30T05:49:00;8.90;99.90
56512;DHT22;42408;53.238;5.686;2023-04-30T05:51:26;9.00;99.90
56512;DHT22;42408;53.238;5.686;2023-04-30T05:53:53;9.10;99.90
56512;DHT22;42408;53.238;5.686;2023-04-30T05:56:19;9.10;99.90
56512;DHT22;42408;53.238;5.686;2023-04-30T05:58:45;9.20;99.90
56512;DHT22;42408;53.238;5.686;2023-04-30T06:01:11;9.20;99.90
56512;DHT22;42408;53.238;5.686;2023-04-30T06:03:37;9.20;99.90
56512;DHT22;42408;53.238;5.686;2023-04-30T06:06:03;9.30;99.90
56512;DHT22;42408;53.238;5.686;2023-04-30T06:08:28;9.40;99.90
56512;DHT22;42408;53.238;5.686;2023-04-30T06:10:54;9.40;99.90
56512;DHT22;42408;53.238;5.686;2023-04-30T06:13:21;9.40;99.90
56512;DHT22;42408;53.238;5.686;2023-04-30T06:15:47;9.40;99.90
56512;DHT22;42408;53.238;5.686;2023-04-30T06:18:13;9.50;99.90
56512;DHT22;42408;53.238;5.686;2023-04-30T06:20:39;9.50;99.90
56512;DHT22;42408;53.238;5.686;2023-04-30T06:23:04;9.50;99.90
56512;DHT22;42408;53.238;5.686;2023-04-30T06:25:30;9.50;99.90
56512;DHT22;42408;53.238;5.686;2023-04-30T06:27:56;9.60;99.90
56512;DHT22;42408;53.238;5.686;2023-04-30T06:30:21;9.60;99.90
56512;DHT22;42408;53.238;5.686;2023-04-30T06:32:47;9.60;99.90
56512;DHT22;42408;53.238;5.686;2023-04-30T06:35:13;9.60;99.90
56512;DHT22;42408;53.238;5.686;2023-04-30T06:37:39;9.80;99.90
56512;DHT22;42408;53.238;5.686;2023-04-30T06:40:05;9.80;99.90
56512;DHT22;42408;53.238;5.686;2023-04-30T06:42:32;9.70;99.90
56512;DHT22;42408;53.238;5.686;2023-04-30T06:45:02;9.80;99.90
56512;DHT22;42408;53.238;5.686;2023-04-30T06:47:32;9.80;99.90
56512;DHT22;42408;53.238;5.686;2023-04-30T06:49:59;9.80;99.90
56512;DHT22;42408;53.238;5.686;2023-04-30T06:52:25;9.80;99.90
56512;DHT22;42408;53.238;5.686;2023-04-30T06:54:51;9.80;99.90
56512;DHT22;42408;53.238;5.686;2023-04-30T06:57:17;9.90;99.90
56512;DHT22;42408;53.238;5.686;2023-04-30T06:59:42;9.90;99.90
56512;DHT22;42408;53.238;5.686;2023-04-30T07:02:09;9.90;99.90
56512;DHT22;42408;53.238;5.686;2023-04-30T07:04:34;9.90;99.90
56512;DHT22;42408;53.238;5.686;2023-04-30T07:07:00;10.00;99.90
56512;DHT22;42408;53.238;5.686;2023-04-30T07:09:27;10.00;99.90
56512;DHT22;42408;53.238;5.686;2023-04-30T07:11:53;10.00;99.90
56512;DHT22;42408;53.238;5.686;2023-04-30T07:14:19;10.00;99.90
56512;DHT22;42408;53.238;5.686;2023-04-30T07:16:45;10.20;99.90
56512;DHT22;42408;53.238;5.686;2023-04-30T07:19:11;10.30;99.90
56512;DHT22;42408;53.238;5.686;2023-04-30T07:21:36;10.30;99.90
56512;DHT22;42408;53.238;5.686;2023-04-30T07:24:02;10.50;99.90
56512;DHT22;42408;53.238;5.686;2023-04-30T07:26:28;10.60;99.90
56512;DHT22;42408;53.238;5.686;2023-04-30T07:28:54;10.80;99.90
56512;DHT22;42408;53.238;5.686;2023-04-30T07:31:19;10.90;99.90
56512;DHT22;42408;53.238;5.686;2023-04-30T07:33:45;11.00;99.90
56512;DHT22;42408;53.238;5.686;2023-04-30T07:36:11;11.30;99.90
56512;DHT22;42408;53.238;5.686;2023-04-30T07:38:36;11.30;99.90
56512;DHT22;42408;53.238;5.686;2023-04-30T07:41:02;11.30;99.90
56512;DHT22;42408;53.238;5.686;2023-04-30T07:43:28;11.50;99.90
56512;DHT22;42408;53.238;5.686;2023-04-30T07:45:55;11.50;99.90
56512;DHT22;42408;53.238;5.686;2023-04-30T07:48:21;11.50;99.90
56512;DHT22;42408;53.238;5.686;2023-04-30T07:50:49;11.60;99.90
56512;DHT22;42408;53.238;5.686;2023-04-30T07:53:15;11.60;99.90
56512;DHT22;42408;53.238;5.686;2023-04-30T07:55:41;11.60;99.90
56512;DHT22;42408;53.238;5.686;2023-04-30T07:58:06;11.70;99.90
56512;DHT22;42408;53.238;5.686;2023-04-30T08:00:32;11.70;99.90
56512;DHT22;42408;53.238;5.686;2023-04-30T08:02:58;11.90;99.90
56512;DHT22;42408;53.238;5.686;2023-04-30T08:05:25;11.80;99.90
56512;DHT22;42408;53.238;5.686;2023-04-30T08:07:50;11.90;99.90
56512;DHT22;42408;53.238;5.686;2023-04-30T08:10:16;12.00;99.90
56512;DHT22;42408;53.238;5.686;2023-04-30T08:12:42;12.00;99.90
56512;DHT22;42408;53.238;5.686;2023-04-30T08:15:07;12.10;99.90
56512;DHT22;42408;53.238;5.686;2023-04-30T08:17:33;12.10;99.90
56512;DHT22;42408;53.238;5.686;2023-04-30T08:20:00;12.00;99.90
56512;DHT22;42408;53.238;5.686;2023-04-30T08:22:25;12.10;99.90
56512;DHT22;42408;53.238;5.686;2023-04-30T08:24:51;12.30;99.90
56512;DHT22;42408;53.238;5.686;2023-04-30T08:27:17;12.40;99.90
56512;DHT22;42408;53.238;5.686;2023-04-30T08:29:43;12.50;99.90
56512;DHT22;42408;53.238;5.686;2023-04-30T08:32:08;12.50;99.90
56512;DHT22;42408;53.238;5.686;2023-04-30T08:34:34;12.60;99.90
56512;DHT22;42408;53.238;5.686;2023-04-30T08:37:00;12.70;99.90
56512;DHT22;42408;53.238;5.686;2023-04-30T08:39:26;12.80;99.90
56512;DHT22;42408;53.238;5.686;2023-04-30T08:41:55;12.80;99.90
56512;DHT22;42408;53.238;5.686;2023-04-30T08:44:21;13.00;99.90
56512;DHT22;42408;53.238;5.686;2023-04-30T08:46:53;13.10;99.90
56512;DHT22;42408;53.238;5.686;2023-04-30T08:49:22;13.20;99.90
56512;DHT22;42408;53.238;5.686;2023-04-30T08:51:48;13.20;99.90
56512;DHT22;42408;53.238;5.686;2023-04-30T08:54:14;13.20;99.90
56512;DHT22;42408;53.238;5.686;2023-04-30T08:56:41;13.30;99.90
56512;DHT22;42408;53.238;5.686;2023-04-30T08:59:06;13.30;99.90
56512;DHT22;42408;53.238;5.686;2023-04-30T09:01:33;13.50;99.90
56512;DHT22;42408;53.238;5.686;2023-04-30T09:03:59;13.80;99.90
56512;DHT22;42408;53.238;5.686;2023-04-30T09:06:27;14.00;99.90
56512;DHT22;42408;53.238;5.686;2023-04-30T09:08:53;14.00;99.90
56512;DHT22;42408;53.238;5.686;2023-04-30T09:11:26;14.40;99.90
56512;DHT22;42408;53.238;5.686;2023-04-30T09:13:58;14.60;99.90
56512;DHT22;42408;53.238;5.686;2023-04-30T09:16:25;14.60;99.90
56512;DHT22;42408;53.238;5.686;2023-04-30T09:18:51;14.70;99.90
56512;DHT22;42408;53.238;5.686;2023-04-30T09:21:30;14.80;99.90
56512;DHT22;42408;53.238;5.686;2023-04-30T09:23:58;14.80;99.90
56512;DHT22;42408;53.238;5.686;2023-04-30T09:28:57;14.90;99.90
56512;DHT22;42408;53.238;5.686;2023-04-30T09:31:23;15.00;99.90
56512;DHT22;42408;53.238;5.686;2023-04-30T09:33:50;15.10;99.90
56512;DHT22;42408;53.238;5.686;2023-04-30T09:36:16;15.10;99.90
56512;DHT22;42408;53.238;5.686;2023-04-30T09:38:42;15.20;99.90
56512;DHT22;42408;53.238;5.686;2023-04-30T09:41:22;15.30;99.90
56512;DHT22;42408;53.238;5.686;2023-04-30T09:43:48;15.50;99.90
56512;DHT22;42408;53.238;5.686;2023-04-30T09:46:14;15.60;99.90
56512;DHT22;42408;53.238;5.686;2023-04-30T09:48:43;15.80;99.90
56512;DHT22;42408;53.238;5.686;2023-04-30T09:51:09;15.90;99.90
56512;DHT22;42408;53.238;5.686;2023-04-30T09:53:41;16.00;99.90
56512;DHT22;42408;53.238;5.686;2023-04-30T09:56:07;16.20;99.90
56512;DHT22;42408;53.238;5.686;2023-04-30T09:58:37;16.40;99.90
56512;DHT22;42408;53.238;5.686;2023-04-30T10:01:04;16.40;99.90
56512;DHT22;42408;53.238;5.686;2023-04-30T10:03:31;16.40;99.90
56512;DHT22;42408;53.238;5.686;2023-04-30T10:05:58;16.50;99.90
56512;DHT22;42408;53.238;5.686;2023-04-30T10:08:30;16.60;99.90
56512;DHT22;42408;53.238;5.686;2023-04-30T10:11:07;16.80;99.90
56512;DHT22;42408;53.238;5.686;2023-04-30T10:13:59;16.90;99.90
56512;DHT22;42408;53.238;5.686;2023-04-30T10:16:53;17.00;99.90
56512;DHT22;42408;53.238;5.686;2023-04-30T10:19:23;17.30;99.90
56512;DHT22;42408;53.238;5.686;2023-04-30T10:21:49;17.50;99.90
56512;DHT22;42408;53.238;5.686;2023-04-30T10:24:17;17.70;99.90
56512;DHT22;42408;53.238;5.686;2023-04-30T10:26:44;17.60;99.90
56512;DHT22;42408;53.238;5.686;2023-04-30T10:29:12;17.50;99.90
56512;DHT22;42408;53.238;5.686;2023-04-30T10:31:38;17.60;99.90
56512;DHT22;42408;53.238;5.686;2023-04-30T10:36:55;18.00;99.90
56512;DHT22;42408;53.238;5.686;2023-04-30T10:39:22;18.10;99.90
56512;DHT22;42408;53.238;5.686;2023-04-30T10:41:59;18.20;99.90
56512;DHT22;42408;53.238;5.686;2023-04-30T10:44:26;18.20;99.90
56512;DHT22;42408;53.238;5.686;2023-04-30T10:47:01;18.20;99.90
56512;DHT22;42408;53.238;5.686;2023-04-30T10:49:28;18.20;99.90
56512;DHT22;42408;53.238;5.686;2023-04-30T10:51:53;18.30;99.90
56512;DHT22;42408;53.238;5.686;2023-04-30T10:54:26;18.30;99.90
56512;DHT22;42408;53.238;5.686;2023-04-30T10:57:14;18.20;99.90
56512;DHT22;42408;53.238;5.686;2023-04-30T10:59:44;18.30;99.90
56512;DHT22;42408;53.238;5.686;2023-04-30T11:02:13;18.20;99.90
56512;DHT22;42408;53.238;5.686;2023-04-30T11:05:08;18.20;99.90
56512;DHT22;42408;53.238;5.686;2023-04-30T11:07:33;18.20;99.90
56512;DHT22;42408;53.238;5.686;2023-04-30T11:10:00;18.30;99.90
56512;DHT22;42408;53.238;5.686;2023-04-30T11:12:27;18.40;99.90
56512;DHT22;42408;53.238;5.686;2023-04-30T11:15:06;18.40;99.90
56512;DHT22;42408;53.238;5.686;2023-04-30T11:17:32;18.60;99.90
56512;DHT22;42408;53.238;5.686;2023-04-30T11:19:59;18.80;99.90
56512;DHT22;42408;53.238;5.686;2023-04-30T11:22:26;18.80;99.90
56512;DHT22;42408;53.238;5.686;2023-04-30T11:25:10;18.70;99.90
56512;DHT22;42408;53.238;5.686;2023-04-30T11:27:40;18.70;99.90
56512;DHT22;42408;53.238;5.686;2023-04-30T11:30:11;18.80;99.90
56512;DHT22;42408;53.238;5.686;2023-04-30T11:32:40;19.00;99.90
56512;DHT22;42408;53.238;5.686;2023-04-30T11:35:06;19.10;99.90
56512;DHT22;42408;53.238;5.686;2023-04-30T11:37:37;19.30;99.90
56512;DHT22;42408;53.238;5.686;2023-04-30T11:40:06;19.40;99.90
56512;DHT22;42408;53.238;5.686;2023-04-30T11:42:33;19.40;99.90
56512;DHT22;42408;53.238;5.686;2023-04-30T11:45:06;19.50;99.90
56512;DHT22;42408;53.238;5.686;2023-04-30T11:50:19;19.70;99.90
56512;DHT22;42408;53.238;5.686;2023-04-30T11:52:50;19.80;99.90
56512;DHT22;42408;53.238;5.686;2023-04-30T11:55:18;19.90;99.90
56512;DHT22;42408;53.238;5.686;2023-04-30T11:57:49;19.90;99.90
56512;DHT22;42408;53.238;5.686;2023-04-30T12:00:16;20.00;99.90
56512;DHT22;42408;53.238;5.686;2023-04-30T12:02:44;19.80;99.90
56512;DHT22;42408;53.238;5.686;2023-04-30T12:05:23;19.80;99.90
56512;DHT22;42408;53.238;5.686;2023-04-30T12:08:02;19.90;99.90
56512;DHT22;42408;53.238;5.686;2023-04-30T12:10:34;20.10;99.90
56512;DHT22;42408;53.238;5.686;2023-04-30T12:13:00;20.10;99.90
56512;DHT22;42408;53.238;5.686;2023-04-30T12:15:27;20.30;99.90
56512;DHT22;42408;53.238;5.686;2023-04-30T12:18:12;20.50;99.90
56512;DHT22;42408;53.238;5.686;2023-04-30T12:20:39;20.80;99.90
56512;DHT22;42408;53.238;5.686;2023-04-30T12:23:06;20.70;99.90
56512;DHT22;42408;53.238;5.686;2023-04-30T12:25:40;20.60;99.90
56512;DHT22;42408;53.238;5.686;2023-04-30T12:28:06;20.60;99.90
56512;DHT22;42408;53.238;5.686;2023-04-30T12:30:32;20.50;99.90
56512;DHT22;42408;53.238;5.686;2023-04-30T12:32:58;20.50;99.90
56512;DHT22;42408;53.238;5.686;2023-04-30T12:35:27;20.40;99.90
56512;DHT22;42408;53.238;5.686;2023-04-30T12:38:03;20.20;99.90
56512;DHT22;42408;53.238;5.686;2023-04-30T12:40:29;20.00;99.90
56512;DHT22;42408;53.238;5.686;2023-04-30T12:43:03;19.70;99.90
56512;DHT22;42408;53.238;5.686;2023-04-30T12:45:48;19.60;99.90
56512;DHT22;42408;53.238;5.686;2023-04-30T12:48:21;19.70;99.90
56512;DHT22;42408;53.238;5.686;2023-04-30T12:50:54;19.70;99.90
56512;DHT22;42408;53.238;5.686;2023-04-30T12:53:20;19.70;99.90
56512;DHT22;42408;53.238;5.686;2023-04-30T12:58:37;20.00;99.90
56512;DHT22;42408;53.238;5.686;2023-04-30T13:01:03;20.20;99.90
56512;DHT22;42408;53.238;5.686;2023-04-30T13:03:29;20.30;99.90
56512;DHT22;42408;53.238;5.686;2023-04-30T13:05:55;20.50;99.90
56512;DHT22;42408;53.238;5.686;2023-04-30T13:08:20;20.70;99.90
56512;DHT22;42408;53.238;5.686;2023-04-30T13:10:47;20.80;99.90
56512;DHT22;42408;53.238;5.686;2023-04-30T13:13:15;20.90;99.90
56512;DHT22;42408;53.238;5.686;2023-04-30T13:15:44;20.80;99.90
56512;DHT22;42408;53.238;5.686;2023-04-30T13:18:09;20.80;99.90
56512;DHT22;42408;53.238;5.686;2023-04-30T13:20:36;20.80;99.90
56512;DHT22;42408;53.238;5.686;2023-04-30T13:23:02;20.80;99.90
56512;DHT22;42408;53.238;5.686;2023-04-30T13:25:28;20.80;99.90
56512;DHT22;42408;53.238;5.686;2023-04-30T13:27:54;20.70;99.90
56512;DHT22;42408;53.238;5.686;2023-04-30T13:30:21;20.50;99.90
56512;DHT22;42408;53.238;5.686;2023-04-30T13:32:47;20.60;99.90
56512;DHT22;42408;53.238;5.686;2023-04-30T13:35:12;20.80;99.90
56512;DHT22;42408;53.238;5.686;2023-04-30T13:37:38;20.80;99.90
56512;DHT22;42408;53.238;5.686;2023-04-30T13:40:06;20.80;99.90
56512;DHT22;42408;53.238;5.686;2023-04-30T13:42:32;20.70;99.90
56512;DHT22;42408;53.238;5.686;2023-04-30T13:44:58;20.50;99.90
56512;DHT22;42408;53.238;5.686;2023-04-30T13:47:23;20.20;99.90
56512;DHT22;42408;53.238;5.686;2023-04-30T13:49:49;20.10;99.90
56512;DHT22;42408;53.238;5.686;2023-04-30T13:52:15;20.10;99.90
56512;DHT22;42408;53.238;5.686;2023-04-30T13:54:40;20.10;99.90
56512;DHT22;42408;53.238;5.686;2023-04-30T13:57:06;20.10;99.90
56512;DHT22;42408;53.238;5.686;2023-04-30T13:59:32;20.10;99.90
56512;DHT22;42408;53.238;5.686;2023-04-30T14:01:58;20.20;99.90
56512;DHT22;42408;53.238;5.686;2023-04-30T14:04:23;20.20;99.90
56512;DHT22;42408;53.238;5.686;2023-04-30T14:06:50;20.10;99.90
56512;DHT22;42408;53.238;5.686;2023-04-30T14:09:16;20.10;99.90
56512;DHT22;42408;53.238;5.686;2023-04-30T14:11:42;19.90;99.90
56512;DHT22;42408;53.238;5.686;2023-04-30T14:14:08;19.90;99.90
56512;DHT22;42408;53.238;5.686;2023-04-30T14:16:33;19.90;99.90
56512;DHT22;42408;53.238;5.686;2023-04-30T14:18:59;20.00;99.90
56512;DHT22;42408;53.238;5.686;2023-04-30T14:21:25;20.00;99.90
56512;DHT22;42408;53.238;5.686;2023-04-30T14:23:53;20.00;99.90
56512;DHT22;42408;53.238;5.686;2023-04-30T14:26:19;19.70;99.90
56512;DHT22;42408;53.238;5.686;2023-04-30T14:28:46;19.40;99.90
56512;DHT22;42408;53.238;5.686;2023-04-30T14:31:12;19.30;99.90
56512;DHT22;42408;53.238;5.686;2023-04-30T14:33:38;19.10;99.90
56512;DHT22;42408;53.238;5.686;2023-04-30T14:36:05;19.20;99.90
56512;DHT22;42408;53.238;5.686;2023-04-30T14:38:31;19.30;99.90
56512;DHT22;42408;53.238;5.686;2023-04-30T14:40:56;19.40;99.90
56512;DHT22;42408;53.238;5.686;2023-04-30T14:43:22;19.50;99.90
56512;DHT22;42408;53.238;5.686;2023-04-30T14:45:48;19.40;99.90
56512;DHT22;42408;53.238;5.686;2023-04-30T14:48:14;19.60;99.90
56512;DHT22;42408;53.238;5.686;2023-04-30T14:50:40;19.60;99.90
56512;DHT22;42408;53.238;5.686;2023-04-30T14:53:05;19.70;99.90
56512;DHT22;42408;53.238;5.686;2023-04-30T14:55:31;19.90;99.90
56512;DHT22;42408;53.238;5.686;2023-04-30T14:57:58;19.90;99.90
56512;DHT22;42408;53.238;5.686;2023-04-30T15:00:23;20.00;99.90
56512;DHT22;42408;53.238;5.686;2023-04-30T15:02:49;20.00;99.70
56512;DHT22;42408;53.238;5.686;2023-04-30T15:05:15;19.90;99.90
56512;DHT22;42408;53.238;5.686;2023-04-30T15:07:41;19.80;99.90
56512;DHT22;42408;53.238;5.686;2023-04-30T15:10:07;19.60;99.90
56512;DHT22;42408;53.238;5.686;2023-04-30T15:12:34;19.60;99.90
56512;DHT22;42408;53.238;5.686;2023-04-30T15:15:03;19.50;99.90
56512;DHT22;42408;53.238;5.686;2023-04-30T15:17:29;19.50;99.90
56512;DHT22;42408;53.238;5.686;2023-04-30T15:19:56;19.30;99.90
56512;DHT22;42408;53.238;5.686;2023-04-30T15:22:25;19.20;99.90
56512;DHT22;42408;53.238;5.686;2023-04-30T15:24:51;19.20;99.90
56512;DHT22;42408;53.238;5.686;2023-04-30T15:27:17;19.20;99.90
56512;DHT22;42408;53.238;5.686;2023-04-30T15:29:42;19.30;99.90
56512;DHT22;42408;53.238;5.686;2023-04-30T15:32:08;19.30;99.90
56512;DHT22;42408;53.238;5.686;2023-04-30T15:34:34;19.40;99.90
56512;DHT22;42408;53.238;5.686;2023-04-30T15:37:00;19.50;99.90
56512;DHT22;42408;53.238;5.686;2023-04-30T15:39:26;19.60;99.90
56512;DHT22;42408;53.238;5.686;2023-04-30T15:41:52;19.50;99.90
56512;DHT22;42408;53.238;5.686;2023-04-30T15:44:17;19.40;99.90
56512;DHT22;42408;53.238;5.686;2023-04-30T15:46:43;19.40;99.90
56512;DHT22;42408;53.238;5.686;2023-04-30T15:49:09;19.30;99.90
56512;DHT22;42408;53.238;5.686;2023-04-30T15:51:34;19.50;99.90
56512;DHT22;42408;53.238;5.686;2023-04-30T15:54:01;19.50;99.90
56512;DHT22;42408;53.238;5.686;2023-04-30T15:56:28;19.40;99.90
56512;DHT22;42408;53.238;5.686;2023-04-30T15:58:53;19.40;99.90
56512;DHT22;42408;53.238;5.686;2023-04-30T16:01:20;19.30;99.90
56512;DHT22;42408;53.238;5.686;2023-04-30T16:03:48;19.20;99.90
56512;DHT22;42408;53.238;5.686;2023-04-30T16:06:14;19.20;99.90